sensor_id;sensor_type;location;lat;lon;timestamp;P1;durP1;ratioP1;P2;durP2;ratioP2
31284;SDS011;56605;51.516;6.742;2022-07-18T00:00:59;2.25;;;1.00;;
31284;SDS011;56605;51.516;6.742;2022-07-18T00:03:25;2.42;;;1.25;;
31284;SDS011;56605;51.516;6.742;2022-07-18T00:05:50;2.33;;;1.33;;
31284;SDS011;56605;51.516;6.742;2022-07-18T00:08:16;4.68;;;1.60;;
31284;SDS011;56605;51.516;6.742;2022-07-18T00:10:41;4.43;;;1.73;;
31284;SDS011;56605;51.516;6.742;2022-07-18T00:13:07;4.78;;;1.70;;
31284;SDS011;56605;51.516;6.742;2022-07-18T00:15:32;5.20;;;1.60;;
31284;SDS011;56605;51.516;6.742;2022-07-18T00:17:57;2.60;;;1.23;;
31284;SDS011;56605;51.516;6.742;2022-07-18T00:20:23;7.07;;;1.50;;
31284;SDS011;56605;51.516;6.742;2022-07-18T00:22:49;2.35;;;1.40;;
31284;SDS011;56605;51.516;6.742;2022-07-18T00:25:14;3.08;;;1.50;;
31284;SDS011;56605;51.516;6.742;2022-07-18T00:27:39;2.40;;;1.30;;
31284;SDS011;56605;51.516;6.742;2022-07-18T00:30:05;3.05;;;1.58;;
31284;SDS011;56605;51.516;6.742;2022-07-18T00:32:30;4.40;;;1.80;;
31284;SDS011;56605;51.516;6.742;2022-07-18T00:34:56;3.95;;;1.10;;
31284;SDS011;56605;51.516;6.742;2022-07-18T00:37:21;5.35;;;1.77;;
31284;SDS011;56605;51.516;6.742;2022-07-18T00:39:46;4.35;;;1.75;;
31284;SDS011;56605;51.516;6.742;2022-07-18T00:42:12;4.57;;;1.55;;
31284;SDS011;56605;51.516;6.742;2022-07-18T00:44:37;2.65;;;1.75;;
31284;SDS011;56605;51.516;6.742;2022-07-18T00:47:03;5.60;;;1.33;;
31284;SDS011;56605;51.516;6.742;2022-07-18T00:49:28;6.15;;;1.38;;
31284;SDS011;56605;51.516;6.742;2022-07-18T00:51:54;4.90;;;1.75;;
31284;SDS011;56605;51.516;6.742;2022-07-18T00:54:19;3.13;;;1.42;;
31284;SDS011;56605;51.516;6.742;2022-07-18T00:56:45;1.70;;;1.35;;
31284;SDS011;56605;51.516;6.742;2022-07-18T00:59:12;3.35;;;1.30;;
31284;SDS011;56605;51.516;6.742;2022-07-18T01:01:38;3.55;;;1.77;;
31284;SDS011;56605;51.516;6.742;2022-07-18T01:04:07;3.60;;;1.45;;
31284;SDS011;56605;51.516;6.742;2022-07-18T01:06:33;3.03;;;1.48;;
31284;SDS011;56605;51.516;6.742;2022-07-18T01:08:58;4.25;;;1.83;;
31284;SDS011;56605;51.516;6.742;2022-07-18T01:11:24;1.85;;;1.20;;
31284;SDS011;56605;51.516;6.742;2022-07-18T01:13:49;5.97;;;1.60;;
31284;SDS011;56605;51.516;6.742;2022-07-18T01:16:15;2.25;;;1.50;;
31284;SDS011;56605;51.516;6.742;2022-07-18T01:18:48;2.95;;;1.35;;
31284;SDS011;56605;51.516;6.742;2022-07-18T01:21:15;3.67;;;1.75;;
31284;SDS011;56605;51.516;6.742;2022-07-18T01:23:41;2.90;;;1.50;;
31284;SDS011;56605;51.516;6.742;2022-07-18T01:26:07;4.18;;;1.67;;
31284;SDS011;56605;51.516;6.742;2022-07-18T01:28:33;4.43;;;1.60;;
31284;SDS011;56605;51.516;6.742;2022-07-18T01:30:59;4.25;;;1.73;;
31284;SDS011;56605;51.516;6.742;2022-07-18T01:33:24;3.95;;;1.52;;
31284;SDS011;56605;51.516;6.742;2022-07-18T01:35:49;5.28;;;1.52;;
31284;SDS011;56605;51.516;6.742;2022-07-18T01:38:15;3.90;;;2.10;;
31284;SDS011;56605;51.516;6.742;2022-07-18T01:40:43;2.45;;;1.27;;
31284;SDS011;56605;51.516;6.742;2022-07-18T01:43:08;4.25;;;1.83;;
31284;SDS011;56605;51.516;6.742;2022-07-18T01:45:33;5.35;;;1.95;;
31284;SDS011;56605;51.516;6.742;2022-07-18T01:47:59;3.25;;;1.75;;
31284;SDS011;56605;51.516;6.742;2022-07-18T01:50:24;3.22;;;1.48;;
31284;SDS011;56605;51.516;6.742;2022-07-18T01:52:49;4.00;;;1.33;;
31284;SDS011;56605;51.516;6.742;2022-07-18T01:55:15;4.45;;;1.52;;
31284;SDS011;56605;51.516;6.742;2022-07-18T01:57:40;5.15;;;1.83;;
31284;SDS011;56605;51.516;6.742;2022-07-18T02:00:07;5.97;;;2.13;;
31284;SDS011;56605;51.516;6.742;2022-07-18T02:02:35;5.47;;;2.30;;
31284;SDS011;56605;51.516;6.742;2022-07-18T02:05:01;5.13;;;1.60;;
31284;SDS011;56605;51.516;6.742;2022-07-18T02:07:29;3.55;;;1.80;;
31284;SDS011;56605;51.516;6.742;2022-07-18T02:09:57;4.75;;;2.13;;
31284;SDS011;56605;51.516;6.742;2022-07-18T02:12:23;3.55;;;1.95;;
31284;SDS011;56605;51.516;6.742;2022-07-18T02:14:49;3.42;;;1.70;;
31284;SDS011;56605;51.516;6.742;2022-07-18T02:17:14;4.43;;;2.08;;
31284;SDS011;56605;51.516;6.742;2022-07-18T02:19:40;2.78;;;1.55;;
31284;SDS011;56605;51.516;6.742;2022-07-18T02:22:05;3.28;;;1.85;;
31284;SDS011;56605;51.516;6.742;2022-07-18T02:24:31;5.07;;;2.10;;
31284;SDS011;56605;51.516;6.742;2022-07-18T02:26:57;2.75;;;1.45;;
31284;SDS011;56605;51.516;6.742;2022-07-18T02:29:23;2.92;;;1.70;;
31284;SDS011;56605;51.516;6.742;2022-07-18T02:31:48;3.25;;;1.88;;
31284;SDS011;56605;51.516;6.742;2022-07-18T02:34:13;2.95;;;1.75;;
31284;SDS011;56605;51.516;6.742;2022-07-18T02:36:39;2.47;;;1.73;;
31284;SDS011;56605;51.516;6.742;2022-07-18T02:39:06;6.47;;;1.77;;
31284;SDS011;56605;51.516;6.742;2022-07-18T02:41:31;3.88;;;1.70;;
31284;SDS011;56605;51.516;6.742;2022-07-18T02:43:57;4.38;;;2.10;;
31284;SDS011;56605;51.516;6.742;2022-07-18T02:46:23;3.38;;;1.85;;
31284;SDS011;56605;51.516;6.742;2022-07-18T02:48:48;3.15;;;1.60;;
31284;SDS011;56605;51.516;6.742;2022-07-18T02:51:13;5.05;;;2.97;;
31284;SDS011;56605;51.516;6.742;2022-07-18T02:53:39;7.57;;;1.75;;
31284;SDS011;56605;51.516;6.742;2022-07-18T02:56:04;7.47;;;1.83;;
31284;SDS011;56605;51.516;6.742;2022-07-18T02:58:29;2.95;;;1.70;;
31284;SDS011;56605;51.516;6.742;2022-07-18T03:00:55;4.10;;;1.95;;
31284;SDS011;56605;51.516;6.742;2022-07-18T03:03:20;6.32;;;1.85;;
31284;SDS011;56605;51.516;6.742;2022-07-18T03:05:45;5.43;;;1.60;;
31284;SDS011;56605;51.516;6.742;2022-07-18T03:08:10;4.20;;;2.15;;
31284;SDS011;56605;51.516;6.742;2022-07-18T03:10:36;3.55;;;1.70;;
31284;SDS011;56605;51.516;6.742;2022-07-18T03:13:01;5.75;;;1.90;;
31284;SDS011;56605;51.516;6.742;2022-07-18T03:15:26;2.90;;;1.50;;
31284;SDS011;56605;51.516;6.742;2022-07-18T03:17:52;2.67;;;1.65;;
31284;SDS011;56605;51.516;6.742;2022-07-18T03:20:17;5.95;;;2.03;;
31284;SDS011;56605;51.516;6.742;2022-07-18T03:22:42;3.90;;;1.77;;
31284;SDS011;56605;51.516;6.742;2022-07-18T03:25:08;6.45;;;1.98;;
31284;SDS011;56605;51.516;6.742;2022-07-18T03:27:33;6.25;;;2.63;;
31284;SDS011;56605;51.516;6.742;2022-07-18T03:29:58;4.38;;;2.38;;
31284;SDS011;56605;51.516;6.742;2022-07-18T03:32:24;5.05;;;2.20;;
31284;SDS011;56605;51.516;6.742;2022-07-18T03:34:49;6.88;;;2.40;;
31284;SDS011;56605;51.516;6.742;2022-07-18T03:37:14;4.25;;;2.05;;
31284;SDS011;56605;51.516;6.742;2022-07-18T03:39:40;5.97;;;2.05;;
31284;SDS011;56605;51.516;6.742;2022-07-18T03:42:05;5.63;;;2.08;;
31284;SDS011;56605;51.516;6.742;2022-07-18T03:44:30;4.22;;;2.20;;
31284;SDS011;56605;51.516;6.742;2022-07-18T03:46:56;4.63;;;1.92;;
31284;SDS011;56605;51.516;6.742;2022-07-18T03:49:21;4.13;;;2.10;;
31284;SDS011;56605;51.516;6.742;2022-07-18T03:51:46;5.95;;;2.00;;
31284;SDS011;56605;51.516;6.742;2022-07-18T03:54:11;6.00;;;2.25;;
31284;SDS011;56605;51.516;6.742;2022-07-18T03:56:37;5.97;;;2.30;;
31284;SDS011;56605;51.516;6.742;2022-07-18T03:59:03;3.85;;;2.10;;
31284;SDS011;56605;51.516;6.742;2022-07-18T04:01:29;6.40;;;2.35;;
31284;SDS011;56605;51.516;6.742;2022-07-18T04:03:54;8.00;;;2.85;;
31284;SDS011;56605;51.516;6.742;2022-07-18T04:06:19;9.48;;;2.88;;
31284;SDS011;56605;51.516;6.742;2022-07-18T04:08:45;8.57;;;2.38;;
31284;SDS011;56605;51.516;6.742;2022-07-18T04:11:10;6.57;;;2.38;;
31284;SDS011;56605;51.516;6.742;2022-07-18T04:13:36;5.25;;;1.73;;
31284;SDS011;56605;51.516;6.742;2022-07-18T04:16:01;7.95;;;2.83;;
31284;SDS011;56605;51.516;6.742;2022-07-18T04:18:27;5.32;;;2.33;;
31284;SDS011;56605;51.516;6.742;2022-07-18T04:20:52;4.60;;;2.15;;
31284;SDS011;56605;51.516;6.742;2022-07-18T04:23:17;3.47;;;2.13;;
31284;SDS011;56605;51.516;6.742;2022-07-18T04:25:43;3.25;;;2.05;;
31284;SDS011;56605;51.516;6.742;2022-07-18T04:28:10;3.45;;;2.45;;
31284;SDS011;56605;51.516;6.742;2022-07-18T04:30:37;5.63;;;2.78;;
31284;SDS011;56605;51.516;6.742;2022-07-18T04:33:05;5.55;;;2.15;;
31284;SDS011;56605;51.516;6.742;2022-07-18T04:35:32;2.40;;;2.00;;
31284;SDS011;56605;51.516;6.742;2022-07-18T04:38:00;3.00;;;1.73;;
31284;SDS011;56605;51.516;6.742;2022-07-18T04:40:26;4.43;;;2.20;;
31284;SDS011;56605;51.516;6.742;2022-07-18T04:42:51;4.32;;;1.85;;
31284;SDS011;56605;51.516;6.742;2022-07-18T04:45:17;5.15;;;2.70;;
31284;SDS011;56605;51.516;6.742;2022-07-18T04:47:46;7.35;;;2.50;;
31284;SDS011;56605;51.516;6.742;2022-07-18T04:50:11;7.90;;;3.10;;
31284;SDS011;56605;51.516;6.742;2022-07-18T04:52:43;6.13;;;2.42;;
31284;SDS011;56605;51.516;6.742;2022-07-18T04:55:11;4.45;;;2.05;;
31284;SDS011;56605;51.516;6.742;2022-07-18T04:57:37;9.30;;;2.83;;
31284;SDS011;56605;51.516;6.742;2022-07-18T05:00:03;6.32;;;2.33;;
31284;SDS011;56605;51.516;6.742;2022-07-18T05:02:30;8.43;;;2.83;;
31284;SDS011;56605;51.516;6.742;2022-07-18T05:04:55;6.75;;;2.25;;
31284;SDS011;56605;51.516;6.742;2022-07-18T05:07:21;9.20;;;2.78;;
31284;SDS011;56605;51.516;6.742;2022-07-18T05:09:46;4.88;;;2.92;;
31284;SDS011;56605;51.516;6.742;2022-07-18T05:12:11;4.28;;;2.20;;
31284;SDS011;56605;51.516;6.742;2022-07-18T05:14:37;5.03;;;2.50;;
31284;SDS011;56605;51.516;6.742;2022-07-18T05:17:02;8.88;;;2.20;;
31284;SDS011;56605;51.516;6.742;2022-07-18T05:19:28;3.47;;;2.10;;
31284;SDS011;56605;51.516;6.742;2022-07-18T05:21:53;6.25;;;2.22;;
31284;SDS011;56605;51.516;6.742;2022-07-18T05:24:19;3.60;;;1.92;;
31284;SDS011;56605;51.516;6.742;2022-07-18T05:26:44;6.78;;;2.55;;
31284;SDS011;56605;51.516;6.742;2022-07-18T05:29:10;6.20;;;2.20;;
31284;SDS011;56605;51.516;6.742;2022-07-18T05:31:37;5.53;;;2.55;;
31284;SDS011;56605;51.516;6.742;2022-07-18T05:34:03;9.40;;;2.50;;
31284;SDS011;56605;51.516;6.742;2022-07-18T05:36:28;4.50;;;2.13;;
31284;SDS011;56605;51.516;6.742;2022-07-18T05:38:53;6.35;;;2.25;;
31284;SDS011;56605;51.516;6.742;2022-07-18T05:41:19;3.72;;;1.70;;
31284;SDS011;56605;51.516;6.742;2022-07-18T05:43:44;8.25;;;2.05;;
31284;SDS011;56605;51.516;6.742;2022-07-18T05:46:09;4.00;;;1.73;;
31284;SDS011;56605;51.516;6.742;2022-07-18T05:48:35;5.57;;;1.90;;
31284;SDS011;56605;51.516;6.742;2022-07-18T05:51:00;7.03;;;2.65;;
31284;SDS011;56605;51.516;6.742;2022-07-18T05:53:25;8.40;;;2.65;;
31284;SDS011;56605;51.516;6.742;2022-07-18T05:55:51;16.75;;;3.35;;
31284;SDS011;56605;51.516;6.742;2022-07-18T05:58:16;13.27;;;2.50;;
31284;SDS011;56605;51.516;6.742;2022-07-18T06:00:41;5.88;;;2.65;;
31284;SDS011;56605;51.516;6.742;2022-07-18T06:03:07;18.90;;;2.97;;
31284;SDS011;56605;51.516;6.742;2022-07-18T06:05:33;6.07;;;2.58;;
31284;SDS011;56605;51.516;6.742;2022-07-18T06:07:58;6.53;;;2.33;;
31284;SDS011;56605;51.516;6.742;2022-07-18T06:10:24;6.13;;;2.25;;
31284;SDS011;56605;51.516;6.742;2022-07-18T06:12:51;7.28;;;1.77;;
31284;SDS011;56605;51.516;6.742;2022-07-18T06:15:17;9.65;;;1.70;;
31284;SDS011;56605;51.516;6.742;2022-07-18T06:17:42;3.13;;;1.45;;
31284;SDS011;56605;51.516;6.742;2022-07-18T06:20:08;5.93;;;1.52;;
31284;SDS011;56605;51.516;6.742;2022-07-18T06:22:34;3.15;;;1.38;;
31284;SDS011;56605;51.516;6.742;2022-07-18T06:25:00;2.53;;;1.30;;
31284;SDS011;56605;51.516;6.742;2022-07-18T06:27:26;7.30;;;1.85;;
31284;SDS011;56605;51.516;6.742;2022-07-18T06:29:51;6.28;;;2.17;;
31284;SDS011;56605;51.516;6.742;2022-07-18T06:32:16;2.78;;;1.38;;
31284;SDS011;56605;51.516;6.742;2022-07-18T06:34:42;6.28;;;1.38;;
31284;SDS011;56605;51.516;6.742;2022-07-18T06:37:07;3.42;;;1.30;;
31284;SDS011;56605;51.516;6.742;2022-07-18T06:39:33;9.20;;;1.33;;
31284;SDS011;56605;51.516;6.742;2022-07-18T06:41:58;4.43;;;1.13;;
31284;SDS011;56605;51.516;6.742;2022-07-18T06:44:23;2.53;;;1.08;;
31284;SDS011;56605;51.516;6.742;2022-07-18T06:46:49;7.97;;;1.08;;
31284;SDS011;56605;51.516;6.742;2022-07-18T06:49:14;1.52;;;0.95;;
31284;SDS011;56605;51.516;6.742;2022-07-18T06:51:40;2.83;;;0.82;;
31284;SDS011;56605;51.516;6.742;2022-07-18T06:54:06;3.78;;;0.98;;
31284;SDS011;56605;51.516;6.742;2022-07-18T06:56:31;9.60;;;1.48;;
31284;SDS011;56605;51.516;6.742;2022-07-18T06:58:56;5.35;;;1.13;;
31284;SDS011;56605;51.516;6.742;2022-07-18T07:01:22;6.25;;;1.35;;
31284;SDS011;56605;51.516;6.742;2022-07-18T07:03:48;9.60;;;1.38;;
31284;SDS011;56605;51.516;6.742;2022-07-18T07:06:14;6.32;;;0.98;;
31284;SDS011;56605;51.516;6.742;2022-07-18T07:08:40;5.80;;;1.48;;
31284;SDS011;56605;51.516;6.742;2022-07-18T07:11:06;3.25;;;1.10;;
31284;SDS011;56605;51.516;6.742;2022-07-18T07:13:32;4.45;;;0.90;;
31284;SDS011;56605;51.516;6.742;2022-07-18T07:15:58;5.70;;;1.20;;
31284;SDS011;56605;51.516;6.742;2022-07-18T07:18:23;3.03;;;1.15;;
31284;SDS011;56605;51.516;6.742;2022-07-18T07:20:48;8.38;;;1.70;;
31284;SDS011;56605;51.516;6.742;2022-07-18T07:23:13;6.38;;;1.35;;
31284;SDS011;56605;51.516;6.742;2022-07-18T07:25:39;3.08;;;1.38;;
31284;SDS011;56605;51.516;6.742;2022-07-18T07:28:06;8.27;;;1.38;;
31284;SDS011;56605;51.516;6.742;2022-07-18T07:30:32;2.90;;;1.25;;
31284;SDS011;56605;51.516;6.742;2022-07-18T07:32:58;1.10;;;0.90;;
31284;SDS011;56605;51.516;6.742;2022-07-18T07:35:24;3.05;;;1.63;;
31284;SDS011;56605;51.516;6.742;2022-07-18T07:37:54;3.90;;;1.20;;
31284;SDS011;56605;51.516;6.742;2022-07-18T07:40:22;3.88;;;1.20;;
31284;SDS011;56605;51.516;6.742;2022-07-18T07:42:49;4.70;;;1.50;;
31284;SDS011;56605;51.516;6.742;2022-07-18T07:45:15;2.20;;;1.02;;
31284;SDS011;56605;51.516;6.742;2022-07-18T07:47:41;2.30;;;1.10;;
31284;SDS011;56605;51.516;6.742;2022-07-18T07:50:08;3.20;;;1.17;;
31284;SDS011;56605;51.516;6.742;2022-07-18T07:52:34;3.65;;;0.88;;
31284;SDS011;56605;51.516;6.742;2022-07-18T07:55:00;3.20;;;1.13;;
31284;SDS011;56605;51.516;6.742;2022-07-18T07:57:25;5.57;;;1.30;;
31284;SDS011;56605;51.516;6.742;2022-07-18T07:59:51;4.07;;;1.63;;
31284;SDS011;56605;51.516;6.742;2022-07-18T08:02:16;5.43;;;1.20;;
31284;SDS011;56605;51.516;6.742;2022-07-18T08:04:43;15.57;;;1.92;;
31284;SDS011;56605;51.516;6.742;2022-07-18T08:07:08;2.03;;;1.10;;
31284;SDS011;56605;51.516;6.742;2022-07-18T08:09:34;5.25;;;1.65;;
31284;SDS011;56605;51.516;6.742;2022-07-18T08:11:59;4.63;;;1.77;;
31284;SDS011;56605;51.516;6.742;2022-07-18T08:14:25;6.95;;;2.58;;
31284;SDS011;56605;51.516;6.742;2022-07-18T08:16:50;6.38;;;1.63;;
31284;SDS011;56605;51.516;6.742;2022-07-18T08:19:15;6.20;;;1.50;;
31284;SDS011;56605;51.516;6.742;2022-07-18T08:21:41;6.35;;;1.83;;
31284;SDS011;56605;51.516;6.742;2022-07-18T08:24:06;2.55;;;1.45;;
31284;SDS011;56605;51.516;6.742;2022-07-18T08:26:32;3.50;;;1.52;;
31284;SDS011;56605;51.516;6.742;2022-07-18T08:29:00;7.93;;;1.63;;
31284;SDS011;56605;51.516;6.742;2022-07-18T08:31:25;7.65;;;1.75;;
31284;SDS011;56605;51.516;6.742;2022-07-18T08:33:51;8.65;;;2.35;;
31284;SDS011;56605;51.516;6.742;2022-07-18T08:36:16;4.93;;;2.03;;
31284;SDS011;56605;51.516;6.742;2022-07-18T08:38:41;5.28;;;2.38;;
31284;SDS011;56605;51.516;6.742;2022-07-18T08:41:07;1.98;;;1.60;;
31284;SDS011;56605;51.516;6.742;2022-07-18T08:43:33;3.15;;;1.67;;
31284;SDS011;56605;51.516;6.742;2022-07-18T08:46:01;5.13;;;1.80;;
31284;SDS011;56605;51.516;6.742;2022-07-18T08:48:28;6.65;;;2.00;;
31284;SDS011;56605;51.516;6.742;2022-07-18T08:50:54;9.90;;;2.45;;
31284;SDS011;56605;51.516;6.742;2022-07-18T08:53:19;7.20;;;1.88;;
31284;SDS011;56605;51.516;6.742;2022-07-18T08:55:45;4.30;;;1.70;;
31284;SDS011;56605;51.516;6.742;2022-07-18T08:58:12;7.72;;;2.10;;
31284;SDS011;56605;51.516;6.742;2022-07-18T09:00:39;7.20;;;1.90;;
31284;SDS011;56605;51.516;6.742;2022-07-18T09:03:05;7.13;;;2.72;;
31284;SDS011;56605;51.516;6.742;2022-07-18T09:05:30;7.47;;;2.90;;
31284;SDS011;56605;51.516;6.742;2022-07-18T09:10:55;7.38;;;2.78;;
31284;SDS011;56605;51.516;6.742;2022-07-18T09:13:22;7.30;;;1.77;;
31284;SDS011;56605;51.516;6.742;2022-07-18T09:16:06;10.00;;;2.90;;
31284;SDS011;56605;51.516;6.742;2022-07-18T09:18:37;10.25;;;2.38;;
31284;SDS011;56605;51.516;6.742;2022-07-18T09:21:05;5.95;;;2.00;;
31284;SDS011;56605;51.516;6.742;2022-07-18T09:23:39;6.28;;;2.47;;
31284;SDS011;56605;51.516;6.742;2022-07-18T09:26:07;6.43;;;2.75;;
31284;SDS011;56605;51.516;6.742;2022-07-18T09:31:19;7.47;;;2.58;;
31284;SDS011;56605;51.516;6.742;2022-07-18T09:33:58;10.05;;;2.83;;
31284;SDS011;56605;51.516;6.742;2022-07-18T09:36:25;5.95;;;2.28;;
31284;SDS011;56605;51.516;6.742;2022-07-18T09:38:52;8.20;;;3.35;;
31284;SDS011;56605;51.516;6.742;2022-07-18T09:41:27;10.23;;;4.07;;
31284;SDS011;56605;51.516;6.742;2022-07-18T09:43:55;9.98;;;4.05;;
31284;SDS011;56605;51.516;6.742;2022-07-18T09:46:20;6.63;;;3.83;;
31284;SDS011;56605;51.516;6.742;2022-07-18T09:48:45;7.65;;;3.15;;
31284;SDS011;56605;51.516;6.742;2022-07-18T09:51:11;7.15;;;3.05;;
31284;SDS011;56605;51.516;6.742;2022-07-18T09:53:40;9.63;;;2.88;;
31284;SDS011;56605;51.516;6.742;2022-07-18T09:56:14;5.80;;;2.15;;
31284;SDS011;56605;51.516;6.742;2022-07-18T09:58:52;3.08;;;1.42;;
31284;SDS011;56605;51.516;6.742;2022-07-18T10:01:21;3.05;;;1.08;;
31284;SDS011;56605;51.516;6.742;2022-07-18T10:03:48;3.05;;;1.42;;
31284;SDS011;56605;51.516;6.742;2022-07-18T10:06:14;2.95;;;1.40;;
31284;SDS011;56605;51.516;6.742;2022-07-18T10:08:41;3.15;;;1.15;;
31284;SDS011;56605;51.516;6.742;2022-07-18T10:11:07;4.57;;;1.95;;
31284;SDS011;56605;51.516;6.742;2022-07-18T10:13:35;4.57;;;1.55;;
31284;SDS011;56605;51.516;6.742;2022-07-18T10:16:02;4.18;;;1.55;;
31284;SDS011;56605;51.516;6.742;2022-07-18T10:18:28;1.77;;;1.27;;
31284;SDS011;56605;51.516;6.742;2022-07-18T10:21:09;3.35;;;1.45;;
31284;SDS011;56605;51.516;6.742;2022-07-18T10:23:39;2.33;;;1.73;;
31284;SDS011;56605;51.516;6.742;2022-07-18T10:28:32;2.83;;;1.50;;
31284;SDS011;56605;51.516;6.742;2022-07-18T10:31:14;2.45;;;1.08;;
31284;SDS011;56605;51.516;6.742;2022-07-18T10:33:42;2.63;;;1.23;;
31284;SDS011;56605;51.516;6.742;2022-07-18T10:36:14;1.73;;;1.10;;
31284;SDS011;56605;51.516;6.742;2022-07-18T10:41:29;3.35;;;1.20;;
31284;SDS011;56605;51.516;6.742;2022-07-18T10:43:54;1.92;;;1.10;;
31284;SDS011;56605;51.516;6.742;2022-07-18T10:46:19;2.38;;;1.33;;
31284;SDS011;56605;51.516;6.742;2022-07-18T10:48:52;2.30;;;1.30;;
31284;SDS011;56605;51.516;6.742;2022-07-18T10:51:18;2.88;;;1.20;;
31284;SDS011;56605;51.516;6.742;2022-07-18T10:53:56;1.58;;;0.90;;
31284;SDS011;56605;51.516;6.742;2022-07-18T10:58:56;1.35;;;1.13;;
31284;SDS011;56605;51.516;6.742;2022-07-18T11:01:25;3.63;;;1.52;;
31284;SDS011;56605;51.516;6.742;2022-07-18T11:06:56;3.53;;;1.30;;
31284;SDS011;56605;51.516;6.742;2022-07-18T11:09:35;2.58;;;1.17;;
31284;SDS011;56605;51.516;6.742;2022-07-18T11:12:25;3.83;;;1.40;;
31284;SDS011;56605;51.516;6.742;2022-07-18T11:14:57;1.42;;;0.90;;
31284;SDS011;56605;51.516;6.742;2022-07-18T11:22:58;1.05;;;0.95;;
31284;SDS011;56605;51.516;6.742;2022-07-18T11:25:24;2.72;;;1.52;;
31284;SDS011;56605;51.516;6.742;2022-07-18T11:27:51;5.65;;;3.20;;
31284;SDS011;56605;51.516;6.742;2022-07-18T11:30:18;2.83;;;1.70;;
31284;SDS011;56605;51.516;6.742;2022-07-18T11:32:44;4.03;;;1.83;;
31284;SDS011;56605;51.516;6.742;2022-07-18T11:35:09;1.67;;;1.23;;
31284;SDS011;56605;51.516;6.742;2022-07-18T11:37:36;3.42;;;1.17;;
31284;SDS011;56605;51.516;6.742;2022-07-18T11:40:05;3.42;;;1.23;;
31284;SDS011;56605;51.516;6.742;2022-07-18T11:42:36;3.25;;;1.50;;
31284;SDS011;56605;51.516;6.742;2022-07-18T11:45:02;3.90;;;1.20;;
31284;SDS011;56605;51.516;6.742;2022-07-18T11:47:29;2.97;;;1.27;;
31284;SDS011;56605;51.516;6.742;2022-07-18T11:49:55;2.00;;;1.20;;
31284;SDS011;56605;51.516;6.742;2022-07-18T11:52:21;1.25;;;1.08;;
31284;SDS011;56605;51.516;6.742;2022-07-18T11:54:46;3.45;;;1.13;;
31284;SDS011;56605;51.516;6.742;2022-07-18T11:57:12;1.75;;;1.60;;
31284;SDS011;56605;51.516;6.742;2022-07-18T11:59:41;2.42;;;1.55;;
31284;SDS011;56605;51.516;6.742;2022-07-18T12:02:09;2.15;;;1.23;;
31284;SDS011;56605;51.516;6.742;2022-07-18T12:04:35;2.67;;;1.40;;
31284;SDS011;56605;51.516;6.742;2022-07-18T12:07:14;1.20;;;1.10;;
31284;SDS011;56605;51.516;6.742;2022-07-18T12:09:42;2.20;;;1.10;;
31284;SDS011;56605;51.516;6.742;2022-07-18T12:12:09;3.25;;;1.38;;
31284;SDS011;56605;51.516;6.742;2022-07-18T12:14:38;1.27;;;1.00;;
31284;SDS011;56605;51.516;6.742;2022-07-18T12:17:03;3.00;;;1.73;;
31284;SDS011;56605;51.516;6.742;2022-07-18T12:19:37;1.23;;;1.02;;
31284;SDS011;56605;51.516;6.742;2022-07-18T12:22:08;2.50;;;1.42;;
31284;SDS011;56605;51.516;6.742;2022-07-18T12:24:38;3.75;;;1.15;;
31284;SDS011;56605;51.516;6.742;2022-07-18T12:27:10;2.00;;;1.23;;
31284;SDS011;56605;51.516;6.742;2022-07-18T12:32:27;2.63;;;1.38;;
31284;SDS011;56605;51.516;6.742;2022-07-18T12:34:57;3.15;;;1.65;;
31284;SDS011;56605;51.516;6.742;2022-07-18T12:37:25;1.80;;;1.13;;
31284;SDS011;56605;51.516;6.742;2022-07-18T12:39:59;2.28;;;1.90;;
31284;SDS011;56605;51.516;6.742;2022-07-18T12:42:33;2.55;;;1.50;;
31284;SDS011;56605;51.516;6.742;2022-07-18T12:45:00;3.33;;;1.63;;
31284;SDS011;56605;51.516;6.742;2022-07-18T12:47:26;2.08;;;1.42;;
31284;SDS011;56605;51.516;6.742;2022-07-18T12:49:51;4.70;;;1.60;;
31284;SDS011;56605;51.516;6.742;2022-07-18T12:52:17;1.60;;;1.08;;
31284;SDS011;56605;51.516;6.742;2022-07-18T12:54:43;3.03;;;1.35;;
31284;SDS011;56605;51.516;6.742;2022-07-18T12:57:10;4.10;;;1.75;;
31284;SDS011;56605;51.516;6.742;2022-07-18T12:59:35;2.03;;;1.23;;
31284;SDS011;56605;51.516;6.742;2022-07-18T13:02:00;1.60;;;1.45;;
31284;SDS011;56605;51.516;6.742;2022-07-18T13:04:27;4.18;;;1.63;;
31284;SDS011;56605;51.516;6.742;2022-07-18T13:06:52;2.67;;;1.48;;
31284;SDS011;56605;51.516;6.742;2022-07-18T13:09:17;4.65;;;1.70;;
31284;SDS011;56605;51.516;6.742;2022-07-18T13:11:42;2.53;;;1.42;;
31284;SDS011;56605;51.516;6.742;2022-07-18T13:14:12;2.85;;;1.40;;
31284;SDS011;56605;51.516;6.742;2022-07-18T13:16:37;1.40;;;1.30;;
31284;SDS011;56605;51.516;6.742;2022-07-18T13:19:02;2.30;;;1.42;;
31284;SDS011;56605;51.516;6.742;2022-07-18T13:21:28;3.88;;;1.42;;
31284;SDS011;56605;51.516;6.742;2022-07-18T13:23:53;2.13;;;1.70;;
31284;SDS011;56605;51.516;6.742;2022-07-18T13:26:19;4.25;;;1.30;;
31284;SDS011;56605;51.516;6.742;2022-07-18T13:28:44;1.77;;;1.10;;
31284;SDS011;56605;51.516;6.742;2022-07-18T13:31:09;1.88;;;1.52;;
31284;SDS011;56605;51.516;6.742;2022-07-18T13:33:35;5.38;;;1.60;;
31284;SDS011;56605;51.516;6.742;2022-07-18T13:36:00;4.20;;;2.17;;
31284;SDS011;56605;51.516;6.742;2022-07-18T13:38:26;2.47;;;2.22;;
31284;SDS011;56605;51.516;6.742;2022-07-18T13:40:51;2.30;;;1.30;;
31284;SDS011;56605;51.516;6.742;2022-07-18T13:43:17;3.25;;;1.80;;
31284;SDS011;56605;51.516;6.742;2022-07-18T13:45:43;2.05;;;1.40;;
31284;SDS011;56605;51.516;6.742;2022-07-18T13:48:08;2.47;;;1.77;;
31284;SDS011;56605;51.516;6.742;2022-07-18T13:50:33;4.35;;;1.65;;
31284;SDS011;56605;51.516;6.742;2022-07-18T13:52:59;3.78;;;1.52;;
31284;SDS011;56605;51.516;6.742;2022-07-18T13:55:24;2.35;;;1.60;;
31284;SDS011;56605;51.516;6.742;2022-07-18T13:57:49;3.08;;;1.40;;
31284;SDS011;56605;51.516;6.742;2022-07-18T14:00:16;3.00;;;1.40;;
31284;SDS011;56605;51.516;6.742;2022-07-18T14:02:43;3.10;;;1.88;;
31284;SDS011;56605;51.516;6.742;2022-07-18T14:05:08;6.25;;;1.58;;
31284;SDS011;56605;51.516;6.742;2022-07-18T14:07:34;1.88;;;1.40;;
31284;SDS011;56605;51.516;6.742;2022-07-18T14:09:59;2.00;;;1.40;;
31284;SDS011;56605;51.516;6.742;2022-07-18T14:12:25;2.17;;;1.23;;
31284;SDS011;56605;51.516;6.742;2022-07-18T14:14:50;1.48;;;1.27;;
31284;SDS011;56605;51.516;6.742;2022-07-18T14:17:16;4.10;;;1.88;;
31284;SDS011;56605;51.516;6.742;2022-07-18T14:19:41;4.40;;;1.40;;
31284;SDS011;56605;51.516;6.742;2022-07-18T14:22:06;4.57;;;1.60;;
31284;SDS011;56605;51.516;6.742;2022-07-18T14:24:34;2.95;;;1.58;;
31284;SDS011;56605;51.516;6.742;2022-07-18T14:27:00;4.13;;;1.52;;
31284;SDS011;56605;51.516;6.742;2022-07-18T14:29:25;1.80;;;1.38;;
31284;SDS011;56605;51.516;6.742;2022-07-18T14:31:50;2.90;;;1.67;;
31284;SDS011;56605;51.516;6.742;2022-07-18T14:34:16;2.30;;;1.50;;
31284;SDS011;56605;51.516;6.742;2022-07-18T14:36:41;1.27;;;1.17;;
31284;SDS011;56605;51.516;6.742;2022-07-18T14:39:07;1.92;;;1.58;;
31284;SDS011;56605;51.516;6.742;2022-07-18T14:41:33;3.47;;;1.23;;
31284;SDS011;56605;51.516;6.742;2022-07-18T14:43:59;2.28;;;1.00;;
31284;SDS011;56605;51.516;6.742;2022-07-18T14:46:25;1.35;;;0.93;;
31284;SDS011;56605;51.516;6.742;2022-07-18T14:48:50;1.58;;;1.42;;
31284;SDS011;56605;51.516;6.742;2022-07-18T14:51:17;5.15;;;2.85;;
31284;SDS011;56605;51.516;6.742;2022-07-18T14:53:42;2.65;;;1.92;;
31284;SDS011;56605;51.516;6.742;2022-07-18T14:56:08;3.97;;;1.55;;
31284;SDS011;56605;51.516;6.742;2022-07-18T14:58:34;2.53;;;1.50;;
31284;SDS011;56605;51.516;6.742;2022-07-18T15:00:59;3.70;;;1.17;;
31284;SDS011;56605;51.516;6.742;2022-07-18T15:03:24;4.05;;;2.30;;
31284;SDS011;56605;51.516;6.742;2022-07-18T15:05:49;1.55;;;1.45;;
31284;SDS011;56605;51.516;6.742;2022-07-18T15:08:15;2.63;;;1.10;;